createdAt,value
2019-05-28T00:02:08.719Z,3.23
2019-05-28T00:04:38.027Z,3.07
2019-05-28T00:07:06.803Z,3.50
2019-05-28T00:09:35.586Z,3.67
2019-05-28T00:12:04.943Z,3.13
2019-05-28T00:14:33.612Z,3.37
2019-05-28T00:17:02.276Z,3.33
2019-05-28T00:19:31.207Z,3.20
2019-05-28T00:22:00.372Z,3.27
2019-05-28T00:24:29.704Z,3.10
2019-05-28T00:26:58.791Z,3.40
2019-05-28T00:29:28.505Z,3.23
2019-05-28T00:31:57.208Z,3.40
2019-05-28T00:34:25.888Z,3.50
2019-05-28T00:36:54.574Z,3.30
2019-05-28T00:39:23.371Z,3.40
2019-05-28T00:41:52.083Z,3.57
2019-05-28T00:44:20.824Z,3.90
2019-05-28T00:46:49.482Z,3.63
2019-05-28T00:49:18.170Z,4.10
2019-05-28T00:51:47.293Z,3.87
2019-05-28T00:54:16.277Z,3.70
2019-05-28T00:56:45.591Z,4.00
2019-05-28T00:59:14.822Z,3.73
2019-05-28T01:01:43.573Z,3.73
2019-05-28T01:04:12.231Z,3.83
2019-05-28T01:06:41.410Z,4.00
2019-05-28T01:09:10.187Z,4.27
2019-05-28T01:11:38.842Z,4.03
2019-05-28T01:14:07.539Z,4.10
2019-05-28T01:16:36.603Z,4.87
2019-05-28T01:19:05.570Z,4.50
2019-05-28T01:21:34.532Z,4.43
2019-05-28T01:24:03.627Z,4.63
2019-05-28T01:26:32.295Z,5.10
2019-05-28T01:29:00.956Z,5.27
2019-05-28T01:31:29.615Z,4.80
2019-05-28T01:33:58.280Z,5.30
2019-05-28T01:36:27.584Z,4.80
2019-05-28T01:38:56.624Z,5.40
2019-05-28T01:41:25.672Z,4.77
2019-05-28T01:43:54.424Z,4.60
2019-05-28T01:46:23.123Z,4.70
2019-05-28T01:48:51.779Z,4.23
2019-05-28T01:51:20.421Z,4.20
2019-05-28T01:53:49.069Z,4.40
2019-05-28T01:56:18.354Z,4.40
2019-05-28T01:58:47.014Z,4.33
2019-05-28T02:01:15.931Z,4.50
2019-05-28T02:03:44.620Z,3.90
2019-05-28T02:06:13.354Z,3.87
2019-05-28T02:08:42.037Z,3.37
2019-05-28T02:11:10.683Z,3.90
2019-05-28T02:13:39.345Z,3.30
2019-05-28T02:16:08.027Z,3.43
2019-05-28T02:18:36.680Z,3.90
2019-05-28T02:21:05.648Z,3.43
2019-05-28T02:23:35.501Z,3.80
2019-05-28T02:26:04.240Z,3.37
2019-05-28T02:28:33.225Z,3.50
2019-05-28T02:31:02.315Z,3.70
2019-05-28T02:33:31.247Z,3.50
2019-05-28T02:35:59.916Z,3.67
2019-05-28T02:38:28.568Z,3.17
2019-05-28T02:40:57.227Z,3.57
2019-05-28T02:43:25.958Z,3.57
2019-05-28T02:45:54.990Z,3.03
2019-05-28T02:48:23.627Z,2.90
2019-05-28T02:51:02.617Z,2.90
2019-05-28T02:53:32.169Z,2.63
2019-05-28T02:56:01.001Z,2.80
2019-05-28T02:58:32.794Z,2.90
2019-05-28T03:01:02.264Z,3.07
2019-05-28T03:03:32.670Z,2.53
2019-05-28T03:06:01.602Z,2.90
2019-05-28T03:08:32.044Z,2.70
2019-05-28T03:11:03.872Z,2.63
2019-05-28T03:13:32.338Z,3.23
2019-05-28T03:16:04.008Z,3.03
2019-05-28T03:18:37.317Z,2.67
2019-05-28T03:21:07.941Z,3.07
2019-05-28T03:23:38.803Z,3.20
2019-05-28T03:26:07.975Z,3.27
2019-05-28T03:28:37.139Z,2.90
2019-05-28T03:31:05.795Z,3.23
2019-05-28T03:33:34.449Z,3.53
2019-05-28T03:36:05.348Z,2.90
2019-05-28T03:38:35.287Z,3.30
2019-05-28T03:41:04.389Z,3.13
2019-05-28T03:43:33.095Z,2.63
2019-05-28T03:46:01.762Z,2.90
2019-05-28T03:48:30.735Z,3.10
2019-05-28T03:50:59.630Z,3.17
2019-05-28T03:53:28.270Z,3.17
2019-05-28T03:55:57.921Z,2.57
2019-05-28T03:58:45.847Z,2.83
2019-05-28T04:01:14.798Z,3.50
2019-05-28T04:03:43.448Z,2.73
2019-05-28T04:06:12.354Z,3.17
2019-05-28T04:08:41.102Z,2.90
2019-05-28T04:11:10.218Z,5.30
2019-05-28T04:13:39.209Z,3.37
2019-05-28T04:16:08.199Z,2.80
2019-05-28T04:18:36.993Z,2.90
2019-05-28T04:21:05.714Z,2.97
2019-05-28T04:23:34.365Z,3.20
2019-05-28T04:26:03.014Z,2.77
2019-05-28T04:28:31.686Z,3.17
2019-05-28T04:31:00.344Z,2.60
2019-05-28T04:33:28.978Z,2.83
2019-05-28T04:35:57.881Z,2.90
2019-05-28T04:38:26.549Z,2.97
2019-05-28T04:40:55.190Z,2.70
2019-05-28T04:43:23.839Z,2.53
2019-05-28T04:45:52.528Z,3.00
2019-05-28T04:48:21.223Z,3.30
2019-05-28T04:50:49.875Z,3.00
2019-05-28T04:53:18.840Z,2.60
2019-05-28T04:55:47.490Z,3.10
2019-05-28T04:58:16.590Z,2.90
2019-05-28T05:00:45.246Z,2.73
2019-05-28T05:03:14.277Z,2.80
2019-05-28T05:05:42.922Z,3.37
2019-05-28T05:08:11.574Z,3.33
2019-05-28T05:10:40.252Z,2.70
2019-05-28T05:13:09.258Z,2.83
2019-05-28T05:15:37.929Z,2.73
2019-05-28T05:18:06.923Z,2.83
2019-05-28T05:20:35.665Z,2.33
2019-05-28T05:23:04.443Z,2.10
2019-05-28T05:25:33.202Z,2.70
2019-05-28T05:28:01.855Z,2.90
2019-05-28T05:30:30.555Z,2.40
2019-05-28T05:33:18.512Z,2.37
2019-05-28T05:35:30.292Z,1.90
2019-05-28T05:37:58.999Z,2.10
2019-05-28T05:40:27.863Z,2.37
2019-05-28T05:42:56.935Z,2.77
2019-05-28T05:45:25.591Z,2.45
2019-05-28T05:47:54.695Z,2.05
2019-05-28T05:50:23.425Z,2.08
2019-05-28T05:52:52.607Z,1.98
2019-05-28T05:55:21.705Z,1.65
2019-05-28T05:57:50.367Z,1.95
2019-05-28T06:00:19.456Z,1.67
2019-05-28T06:02:48.378Z,1.82
2019-05-28T06:05:17.171Z,1.95
2019-05-28T06:07:45.869Z,1.87
2019-05-28T06:10:15.355Z,1.80
2019-05-28T06:12:44.024Z,2.08
2019-05-28T06:15:12.805Z,1.92
2019-05-28T06:17:41.455Z,1.90
2019-05-28T06:20:10.627Z,1.87
2019-05-28T06:22:39.276Z,1.60
2019-05-28T06:25:08.172Z,1.65
2019-05-28T06:27:37.106Z,1.52
2019-05-28T06:30:06.458Z,1.90
2019-05-28T06:32:36.510Z,1.90
2019-05-28T06:35:06.488Z,2.33
2019-05-28T06:37:35.522Z,1.62
2019-05-28T06:40:05.760Z,1.72
2019-05-28T06:42:39.089Z,1.90
2019-05-28T06:45:06.270Z,1.70
2019-05-28T06:47:34.987Z,1.52
2019-05-28T06:50:04.876Z,1.42
2019-05-28T06:52:33.900Z,1.70
2019-05-28T06:55:02.555Z,1.40
2019-05-28T06:57:31.211Z,1.62
2019-05-28T06:59:59.867Z,2.12
2019-05-28T07:02:29.044Z,1.92
2019-05-28T07:04:57.713Z,1.65
2019-05-28T07:07:26.363Z,1.90
2019-05-28T07:09:55.621Z,1.72
2019-05-28T07:12:24.287Z,3.75
2019-05-28T07:14:53.277Z,1.70
2019-05-28T07:17:21.957Z,1.47
2019-05-28T07:19:50.638Z,1.47
2019-05-28T07:22:19.348Z,1.70
2019-05-28T07:24:48.004Z,1.62
2019-05-28T07:27:16.691Z,1.70
2019-05-28T07:29:45.463Z,1.72
2019-05-28T07:32:14.103Z,1.72
2019-05-28T07:34:42.755Z,1.82
2019-05-28T07:37:11.407Z,2.02
2019-05-28T07:39:40.335Z,1.75
2019-05-28T07:42:09.234Z,1.82
2019-05-28T07:44:37.909Z,1.70
2019-05-28T07:47:06.546Z,1.80
2019-05-28T07:49:35.323Z,1.85
2019-05-28T07:52:03.957Z,1.75
2019-05-28T07:54:32.605Z,1.30
2019-05-28T07:57:01.244Z,1.40
2019-05-28T07:59:30.178Z,1.65
2019-05-28T08:01:58.819Z,1.27
2019-05-28T08:04:27.505Z,1.27
2019-05-28T08:06:56.542Z,1.35
2019-05-28T08:09:25.222Z,1.37
2019-05-28T08:11:54.224Z,1.40
2019-05-28T08:14:22.897Z,1.60
2019-05-28T08:16:52.926Z,1.55
2019-05-28T08:19:22.124Z,1.27
2019-05-28T08:21:50.782Z,1.52
2019-05-28T08:24:22.865Z,1.20
2019-05-28T08:26:49.815Z,1.57
2019-05-28T08:29:18.468Z,1.00
2019-05-28T08:31:47.392Z,1.50
2019-05-28T08:34:19.369Z,1.30
2019-05-28T08:37:01.763Z,1.30
2019-05-28T08:39:17.227Z,1.27
2019-05-28T08:41:46.051Z,1.22
2019-05-28T08:44:14.765Z,1.60
2019-05-28T08:46:43.428Z,0.95
2019-05-28T08:49:13.123Z,0.95
2019-05-28T08:51:41.797Z,3.00
2019-05-28T08:54:10.801Z,1.87
2019-05-28T08:56:39.485Z,0.90
2019-05-28T08:59:08.133Z,1.80
2019-05-28T09:01:36.783Z,1.22
2019-05-28T09:04:05.476Z,1.20
2019-05-28T09:06:34.506Z,1.00
2019-05-28T09:09:03.964Z,1.55
2019-05-28T09:11:32.656Z,1.47
2019-05-28T09:14:01.349Z,1.40
2019-05-28T09:16:30.311Z,1.42
2019-05-28T09:18:59.222Z,1.60
2019-05-28T09:21:27.858Z,2.42
2019-05-28T09:23:56.517Z,1.42
2019-05-28T09:26:25.159Z,1.12
2019-05-28T09:28:53.829Z,1.50
2019-05-28T09:31:22.588Z,1.75
2019-05-28T09:33:51.263Z,1.30
2019-05-28T09:36:19.959Z,1.47
2019-05-28T09:38:48.655Z,1.60
2019-05-28T09:41:17.322Z,1.30
2019-05-28T09:43:45.960Z,1.15
2019-05-28T09:46:14.679Z,1.52
2019-05-28T09:48:43.396Z,1.40
2019-05-28T09:51:12.130Z,1.57
2019-05-28T09:53:40.779Z,1.42
2019-05-28T09:56:09.841Z,1.57
2019-05-28T09:58:38.507Z,1.60
2019-05-28T10:01:07.609Z,1.70
2019-05-28T10:03:36.272Z,1.62
2019-05-28T10:06:16.215Z,1.05
2019-05-28T10:08:35.607Z,0.90
2019-05-28T10:11:04.424Z,1.22
2019-05-28T10:13:38.899Z,1.25
2019-05-28T10:16:03.598Z,1.75
2019-05-28T10:18:32.343Z,1.32
2019-05-28T10:21:16.854Z,1.20
2019-05-28T10:23:32.158Z,1.47
2019-05-28T10:26:00.921Z,1.25
2019-05-28T10:28:29.945Z,0.80
2019-05-28T10:30:58.630Z,1.17
2019-05-28T10:33:27.437Z,1.05
2019-05-28T10:35:56.524Z,1.15
2019-05-28T10:38:25.357Z,1.87
2019-05-28T10:40:54.098Z,2.15
2019-05-28T10:43:22.803Z,0.90
2019-05-28T10:45:51.644Z,1.10
2019-05-28T10:48:20.606Z,1.70
2019-05-28T10:50:49.736Z,1.32
2019-05-28T10:53:18.752Z,1.02
2019-05-28T10:55:47.534Z,1.00
2019-05-28T10:58:16.199Z,1.20
2019-05-28T11:00:44.899Z,0.70
2019-05-28T11:03:13.573Z,0.82
2019-05-28T11:05:42.439Z,0.93
2019-05-28T11:08:11.188Z,1.10
2019-05-28T11:10:39.851Z,1.15
2019-05-28T11:13:08.550Z,0.98
2019-05-28T11:15:37.744Z,1.00
2019-05-28T11:18:06.419Z,0.90
2019-05-28T11:20:35.619Z,0.88
2019-05-28T11:23:04.843Z,1.20
2019-05-28T11:25:33.612Z,1.02
2019-05-28T11:28:02.396Z,0.90
2019-05-28T11:30:31.107Z,1.30
2019-05-28T11:32:59.850Z,1.22
2019-05-28T11:35:28.758Z,0.85
2019-05-28T11:37:57.641Z,1.05
2019-05-28T11:40:29.991Z,1.62
2019-05-28T11:42:57.799Z,1.00
2019-05-28T11:45:26.876Z,0.90
2019-05-28T11:47:55.564Z,0.93
2019-05-28T11:50:24.331Z,1.22
2019-05-28T11:52:53.051Z,3.12
2019-05-28T11:55:22.288Z,6.78
2019-05-28T11:57:51.086Z,1.00
2019-05-28T12:00:21.959Z,0.90
2019-05-28T12:02:50.818Z,1.40
2019-05-28T12:05:20.067Z,0.88
2019-05-28T12:07:51.702Z,0.95
2019-05-28T12:10:20.737Z,1.10
2019-05-28T12:12:49.524Z,1.27
2019-05-28T12:15:19.256Z,1.02
2019-05-28T12:17:48.037Z,1.22
2019-05-28T12:20:19.046Z,1.32
2019-05-28T12:22:47.748Z,1.30
2019-05-28T12:25:17.215Z,1.00
2019-05-28T12:27:45.882Z,1.30
2019-05-28T12:30:18.337Z,1.10
2019-05-28T12:32:46.848Z,1.07
2019-05-28T12:35:27.367Z,1.00
2019-05-28T12:37:49.922Z,0.95
2019-05-28T12:40:17.813Z,1.22
2019-05-28T12:42:46.842Z,1.00
2019-05-28T12:45:16.484Z,1.20
2019-05-28T12:47:45.161Z,1.10
2019-05-28T12:50:20.019Z,1.00
2019-05-28T12:52:47.404Z,0.82
2019-05-28T12:55:17.139Z,1.17
2019-05-28T12:57:45.855Z,1.20
2019-05-28T13:00:15.652Z,1.20
2019-05-28T13:02:44.413Z,1.02
2019-05-28T13:05:14.335Z,0.82
2019-05-28T13:07:43.070Z,1.10
2019-05-28T13:10:12.411Z,1.07
2019-05-28T13:12:41.995Z,1.02
2019-05-28T13:15:12.221Z,1.52
2019-05-28T13:17:40.911Z,1.35
2019-05-28T13:20:11.333Z,2.42
2019-05-28T13:22:40.246Z,1.10
2019-05-28T13:25:10.345Z,1.10
2019-05-28T13:27:39.068Z,1.32
2019-05-28T13:30:08.408Z,1.85
2019-05-28T13:32:37.424Z,1.27
2019-05-28T13:35:07.608Z,1.12
2019-05-28T13:37:36.651Z,1.40
2019-05-28T13:40:07.892Z,1.35
2019-05-28T13:42:37.042Z,0.93
2019-05-28T13:45:07.306Z,1.22
2019-05-28T13:47:35.970Z,1.55
2019-05-28T13:50:05.610Z,1.10
2019-05-28T13:52:34.645Z,1.60
2019-05-28T13:55:03.418Z,1.45
2019-05-28T13:57:32.083Z,0.90
2019-05-28T14:00:00.915Z,1.15
2019-05-28T14:02:29.581Z,1.20
2019-05-28T14:04:58.569Z,1.17
2019-05-28T14:07:27.539Z,1.10
2019-05-28T14:09:56.472Z,0.82
2019-05-28T14:12:25.466Z,1.25
2019-05-28T14:14:54.472Z,1.00
2019-05-28T14:17:24.731Z,1.20
2019-05-28T14:19:53.504Z,1.25
2019-05-28T14:22:33.542Z,1.00
2019-05-28T14:24:53.193Z,1.12
2019-05-28T14:27:21.877Z,1.20
2019-05-28T14:29:50.919Z,1.17
2019-05-28T14:32:19.692Z,0.98
2019-05-28T14:34:52.291Z,0.75
2019-05-28T14:37:19.515Z,0.95
2019-05-28T14:39:48.223Z,0.98
2019-05-28T14:42:17.970Z,1.00
2019-05-28T14:44:48.814Z,0.98
2019-05-28T14:47:17.490Z,1.02
2019-05-28T14:49:46.245Z,1.00
2019-05-28T14:52:14.911Z,1.00
2019-05-28T14:54:43.795Z,0.88
2019-05-28T14:57:12.694Z,0.82
2019-05-28T14:59:41.377Z,0.90
2019-05-28T15:02:10.065Z,0.78
2019-05-28T15:04:38.822Z,0.70
2019-05-28T15:07:07.528Z,0.90
2019-05-28T15:09:36.197Z,0.65
2019-05-28T15:12:05.103Z,0.60
2019-05-28T15:14:33.805Z,1.32
2019-05-28T15:17:02.454Z,1.07
2019-05-28T15:19:31.391Z,0.82
2019-05-28T15:22:00.246Z,1.00
2019-05-28T15:24:29.107Z,0.78
2019-05-28T15:26:57.834Z,0.78
2019-05-28T15:29:26.772Z,0.90
2019-05-28T15:31:55.754Z,0.88
2019-05-28T15:34:24.432Z,0.95
2019-05-28T15:36:53.118Z,1.10
2019-05-28T15:39:38.526Z,0.82
2019-05-28T15:41:52.575Z,0.98
2019-05-28T15:44:21.226Z,0.93
2019-05-28T15:46:49.868Z,0.98
2019-05-28T15:49:19.202Z,0.72
2019-05-28T15:51:47.997Z,0.98
2019-05-28T15:54:16.992Z,0.80
2019-05-28T15:56:45.678Z,0.60
2019-05-28T15:59:14.372Z,0.82
2019-05-28T16:01:44.512Z,1.02
2019-05-28T16:04:13.198Z,1.00
2019-05-28T16:06:41.847Z,0.95
2019-05-28T16:09:12.900Z,0.82
2019-05-28T16:11:40.885Z,0.93
2019-05-28T16:14:09.519Z,0.70
2019-05-28T16:16:38.203Z,0.98
2019-05-28T16:19:06.850Z,0.60
2019-05-28T16:21:35.540Z,1.07
2019-05-28T16:24:04.307Z,0.75
2019-05-28T16:26:33.196Z,1.32
2019-05-28T16:29:02.164Z,0.88
2019-05-28T16:31:30.851Z,0.75
2019-05-28T16:33:59.531Z,0.80
2019-05-28T16:36:28.197Z,0.80
2019-05-28T16:38:57.240Z,0.65
2019-05-28T16:41:26.259Z,0.80
2019-05-28T16:43:55.547Z,1.10
2019-05-28T16:46:24.269Z,0.60
2019-05-28T16:48:52.972Z,0.60
2019-05-28T16:51:21.622Z,1.10
2019-05-28T16:53:50.405Z,0.65
2019-05-28T16:56:19.327Z,0.42
2019-05-28T16:58:48.004Z,0.62
2019-05-28T17:01:22.344Z,0.70
2019-05-28T17:03:47.425Z,1.05
2019-05-28T17:06:16.434Z,0.80
2019-05-28T17:08:45.109Z,0.80
2019-05-28T17:11:14.030Z,0.72
2019-05-28T17:14:30.760Z,0.90
2019-05-28T17:16:38.950Z,0.65
2019-05-28T17:19:07.684Z,0.93
2019-05-28T17:21:36.420Z,1.02
2019-05-28T17:24:05.197Z,0.70
2019-05-28T17:26:33.843Z,0.82
2019-05-28T17:29:02.768Z,0.83
2019-05-28T17:31:31.559Z,0.80
2019-05-28T17:34:00.918Z,0.87
2019-05-28T17:36:29.588Z,0.82
2019-05-28T17:38:58.552Z,0.90
2019-05-28T17:41:27.500Z,0.80
2019-05-28T17:43:56.152Z,1.20
2019-05-28T17:46:24.879Z,1.10
2019-05-28T17:48:53.895Z,0.80
2019-05-28T17:51:22.535Z,0.67
2019-05-28T17:53:51.188Z,0.90
2019-05-28T17:56:19.896Z,0.77
2019-05-28T17:58:48.956Z,0.77
2019-05-28T18:01:17.659Z,0.60
2019-05-28T18:03:46.318Z,0.60
2019-05-28T18:06:14.977Z,0.90
2019-05-28T18:08:43.905Z,0.90
2019-05-28T18:11:12.543Z,1.10
2019-05-28T18:13:41.529Z,0.70
2019-05-28T18:16:10.264Z,0.70
2019-05-28T18:18:38.911Z,0.90
2019-05-28T18:21:07.558Z,0.83
2019-05-28T18:23:36.208Z,0.67
2019-05-28T18:26:05.004Z,0.77
2019-05-28T18:28:33.661Z,5.70
2019-05-28T18:31:05.059Z,0.67
2019-05-28T18:33:34.013Z,0.90
2019-05-28T18:36:02.750Z,0.90
2019-05-28T18:38:31.456Z,0.70
2019-05-28T18:41:00.172Z,0.80
2019-05-28T18:43:29.284Z,0.70
2019-05-28T18:45:57.962Z,0.80
2019-05-28T18:48:26.623Z,1.07
2019-05-28T18:50:55.288Z,1.13
2019-05-28T18:53:24.007Z,1.00
2019-05-28T18:55:52.955Z,0.97
2019-05-28T18:58:21.799Z,1.03
2019-05-28T19:00:51.500Z,1.00
2019-05-28T19:03:20.442Z,1.00
2019-05-28T19:05:49.608Z,0.90
2019-05-28T19:08:18.335Z,0.90
2019-05-28T19:10:47.585Z,1.30
2019-05-28T19:13:16.596Z,1.20
2019-05-28T19:15:45.356Z,1.27
2019-05-28T19:18:14.007Z,1.50
2019-05-28T19:20:43.070Z,1.03
2019-05-28T19:23:11.739Z,1.00
2019-05-28T19:25:40.477Z,0.83
2019-05-28T19:28:09.196Z,1.00
2019-05-28T19:30:37.836Z,1.13
2019-05-28T19:33:06.601Z,0.90
2019-05-28T19:35:35.585Z,1.00
2019-05-28T19:38:05.830Z,0.90
2019-05-28T19:40:36.845Z,1.00
2019-05-28T19:43:05.697Z,1.00
2019-05-28T19:45:35.191Z,1.20
2019-05-28T19:48:04.365Z,1.10
2019-05-28T19:50:33.140Z,1.10
2019-05-28T19:53:01.778Z,1.30
2019-05-28T19:55:30.807Z,1.10
2019-05-28T19:57:59.459Z,1.50
2019-05-28T20:00:28.216Z,1.30
2019-05-28T20:02:57.013Z,0.80
2019-05-28T20:05:25.734Z,1.40
2019-05-28T20:07:54.403Z,0.90
2019-05-28T20:10:23.432Z,1.70
2019-05-28T20:12:52.435Z,1.57
2019-05-28T20:15:22.868Z,1.10
2019-05-28T20:17:52.503Z,0.97
2019-05-28T20:20:21.580Z,1.23
2019-05-28T20:22:50.247Z,1.10
2019-05-28T20:25:19.089Z,0.90
2019-05-28T20:27:47.753Z,1.07
2019-05-28T20:30:17.369Z,1.17
2019-05-28T20:32:46.027Z,0.93
2019-05-28T20:35:14.865Z,0.77
2019-05-28T20:37:43.578Z,0.73
2019-05-28T20:40:12.832Z,0.70
2019-05-28T20:42:41.796Z,0.70
2019-05-28T20:45:12.114Z,0.70
2019-05-28T20:47:41.087Z,0.70
2019-05-28T20:50:11.739Z,0.80
2019-05-28T20:52:40.602Z,0.87
2019-05-28T20:55:09.598Z,0.80
2019-05-28T20:57:38.520Z,1.00
2019-05-28T21:00:08.554Z,0.77
2019-05-28T21:02:37.252Z,0.80
2019-05-28T21:05:06.532Z,1.00
2019-05-28T21:07:35.663Z,0.70
2019-05-28T21:10:05.005Z,1.00
2019-05-28T21:12:43.185Z,0.73
2019-05-28T21:15:04.557Z,1.30
2019-05-28T21:17:33.176Z,0.77
2019-05-28T21:20:01.896Z,0.60
2019-05-28T21:22:30.526Z,0.60
2019-05-28T21:25:00.611Z,1.10
2019-05-28T21:27:29.328Z,0.70
2019-05-28T21:29:58.329Z,0.83
2019-05-28T21:32:27.033Z,0.70
2019-05-28T21:34:58.156Z,0.60
2019-05-28T21:37:26.163Z,0.77
2019-05-28T21:39:55.449Z,0.70
2019-05-28T21:42:29.487Z,0.73
2019-05-28T21:44:58.163Z,0.80
2019-05-28T21:47:27.139Z,2.40
2019-05-28T21:49:58.986Z,0.80
2019-05-28T21:55:40.908Z,0.90
2019-05-28T21:58:09.779Z,0.80
2019-05-28T22:00:47.100Z,0.83
2019-05-28T22:03:16.313Z,0.77
2019-05-28T22:05:45.255Z,0.87
2019-05-28T22:08:14.446Z,0.60
2019-05-28T22:10:43.451Z,0.80
2019-05-28T22:13:20.487Z,0.90
2019-05-28T22:15:42.460Z,0.60
2019-05-28T22:18:11.364Z,0.90
2019-05-28T22:20:40.242Z,0.70
2019-05-28T22:23:08.956Z,0.90
2019-05-28T22:25:37.694Z,0.80
2019-05-28T22:28:12.362Z,0.50
2019-05-28T22:30:41.024Z,0.60
2019-05-28T22:33:09.671Z,0.80
2019-05-28T22:35:38.722Z,0.93
2019-05-28T22:38:13.188Z,0.90
2019-05-28T22:40:41.864Z,0.57
2019-05-28T22:43:11.122Z,0.90
2019-05-28T22:45:43.068Z,0.50
2019-05-28T22:48:15.732Z,0.60
2019-05-28T22:50:40.678Z,0.90
2019-05-28T22:53:09.739Z,0.67
2019-05-28T22:55:38.416Z,0.87
2019-05-28T22:58:07.066Z,0.67
2019-05-28T23:00:36.128Z,0.70
2019-05-28T23:03:05.077Z,0.77
2019-05-28T23:05:33.850Z,0.73
2019-05-28T23:08:03.676Z,0.60
2019-05-28T23:10:32.623Z,0.77
2019-05-28T23:13:02.926Z,1.00
2019-05-28T23:15:31.770Z,0.83
2019-05-28T23:18:00.752Z,0.87
2019-05-28T23:20:29.419Z,0.77
2019-05-28T23:22:58.411Z,0.90
2019-05-28T23:25:27.110Z,0.87
2019-05-28T23:27:55.780Z,0.97
2019-05-28T23:30:25.552Z,0.67
2019-05-28T23:32:55.326Z,0.90
2019-05-28T23:35:24.205Z,0.67
2019-05-28T23:37:53.191Z,0.70
2019-05-28T23:40:22.065Z,0.73
2019-05-28T23:42:50.703Z,0.87
2019-05-28T23:45:19.521Z,0.80
2019-05-28T23:47:48.171Z,0.90
2019-05-28T23:50:18.298Z,0.73
2019-05-28T23:52:47.586Z,0.80
2019-05-28T23:55:16.408Z,0.70
2019-05-28T23:59:38.607Z,0.97
